Midway, AR

2:14 PM CDT on August 30, 2014 (GMT -0500)
Tank Rea Insurance Agency, Inc. | Change Station
CLOSE
Current Station
Personal Weather Station
Location: Mountain Home, AR
Elevation: 797 ft
Nearby Weather Stations

Elev 797 ft 36.33 °N, 92.38 °W | Updated 4 minutes ago

Overcast
Overcast
83.7 °F
Feels Like 90 °F
N
0.0
Wind Variable Wind from North
Gusts 0.0 mph

Today
High -- | Low -- °F
--% Chance of Precip.
Yesterday
High -- | Low -- °F
Precip. -- in
6:39 AM 7:40 PM
Waxing Crescent, 24% visible
Pressure 29.97 in
Visibility 10.0 miles
Clouds Mostly Cloudy 2300 ft
Heat Index 90 °F
Dew Point 74 °F
Humidity 72%
Rainfall 0.00 in
Snow Depth Not available.
UV 5 out of 12
Pollen 10.00 out of 12
Air Quality Not available.
Flu Activity Not available.
SPECI KBPK 301905Z AUTO 15007KT 10SM TS BKN023 28/22 A2997 RMK AO2 LTG DSNT W-N T02830217

More Conditions Fewer Conditions

Pressure 29.97 in
Visibility 10.0 miles
Clouds Mostly Cloudy 2300 ft
Heat Index 90 °F
Dew Point 74 °F
Humidity 72%
Rainfall 0.00 in
Snow Depth Not available.
UV 5 out of 12
Pollen 10.00 out of 12
Air Quality Not available.
Flu Activity Not available.
SPECI KBPK 301905Z AUTO 15007KT 10SM TS BKN023 28/22 A2997 RMK AO2 LTG DSNT W-N T02830217

More Conditions Fewer Conditions

10-Day Weather Forecast

Almanac

Astronomy

Aug. 30, 2014 Rise Set
Actual Time 6:39 AM CDT 7:40 PM CDT
Civil Twilight 6:13 AM CDT 8:06 PM CDT
Nautical Twilight 5:41 AM CDT 8:37 PM CDT
Astronomical Twilight 5:09 AM CDT 9:10 PM CDT
Moon 11:18 AM CDT 10:24 PM CDT
Length of Visible Light 13h 53m
Length of Day
13h 00m
Tomorrow will be 2m 12s shorter.
Waxing Crescent, 24% of the Moon is Illuminated
Today
Waxing Crescent
Sep 2
First Quarter
Sep 8
Full
Sep 15
Last Quarter
Sep 24
New

Today's Extremes

State Highs State Lows

Community

WunderPhotos

Upload Photos

1,748,596 photos uploaded!

WunderBlogs® & News

Nearby

Snow Depth

Station Depth Elevation
No new snow has been reported.

Earthquake Activity

City Distance Mag. Time & Date
No recent earthquake activity has been reported nearby.
Minimum magnitude displayed is 2.5.

Coastal Water Temperatures

Place Temperature
No Stations Reporting

Nearby Weather Stations